createdAt,value
2023-02-03T00:00:03.572Z,101489.25
2023-02-03T00:02:40.980Z,101540.03
2023-02-03T00:05:11.719Z,101534.25
2023-02-03T00:07:44.494Z,101506.25
2023-02-03T00:10:14.542Z,101486.50
2023-02-03T00:12:44.385Z,101495.53
2023-02-03T00:15:14.074Z,101505.84
2023-02-03T00:17:43.730Z,101515.47
2023-02-03T00:20:14.964Z,101518.34
2023-02-03T00:22:47.382Z,101522.22
2023-02-03T00:25:17.376Z,101502.28
2023-02-03T00:27:47.259Z,101463.84
2023-02-03T00:30:17.065Z,101480.28
2023-02-03T00:32:46.679Z,101485.50
2023-02-03T00:35:16.340Z,101504.63
2023-02-03T00:37:54.726Z,101418.66
2023-02-03T00:40:26.581Z,101528.16
2023-02-03T00:42:56.354Z,101521.78
2023-02-03T00:45:26.038Z,101517.84
2023-02-03T00:47:55.759Z,101356.78
2023-02-03T00:50:25.651Z,101477.59
2023-02-03T00:52:58.063Z,101462.78
2023-02-03T00:55:29.003Z,101471.38
2023-02-03T00:57:58.719Z,101488.03
2023-02-03T01:00:28.527Z,101500.31
2023-02-03T01:02:59.009Z,101488.16
2023-02-03T01:05:28.687Z,101507.88
2023-02-03T01:08:01.003Z,101521.03
2023-02-03T01:10:30.706Z,101500.06
2023-02-03T01:13:00.492Z,101522.78
2023-02-03T01:15:31.148Z,101526.38
2023-02-03T01:18:00.858Z,101509.13
2023-02-03T01:20:30.601Z,101515.84
2023-02-03T01:23:03.993Z,101490.88
2023-02-03T01:25:33.704Z,101462.88
2023-02-03T01:28:06.152Z,101499.94
2023-02-03T01:30:36.060Z,101492.97
2023-02-03T01:33:07.041Z,101454.75
2023-02-03T01:35:37.234Z,101500.25
2023-02-03T01:38:09.517Z,101479.91
2023-02-03T01:40:45.740Z,101502.31
2023-02-03T01:43:32.009Z,101490.00
2023-02-03T01:46:05.648Z,101492.88
2023-02-03T01:48:37.413Z,101458.31
2023-02-03T01:51:08.110Z,101490.41
2023-02-03T01:53:40.436Z,101483.84
2023-02-03T01:56:11.123Z,101457.06
2023-02-03T01:58:43.662Z,101479.72
2023-02-03T02:01:13.500Z,101437.19
2023-02-03T02:03:45.747Z,101422.81
2023-02-03T02:06:17.237Z,101431.84
2023-02-03T02:08:53.153Z,101440.59
2023-02-03T02:11:24.083Z,101408.34
2023-02-03T02:13:56.415Z,101394.38
2023-02-03T02:16:37.940Z,101424.06
2023-02-03T02:19:27.657Z,101366.16
2023-02-03T02:22:13.458Z,101383.72
2023-02-03T02:25:06.137Z,101379.97
2023-02-03T02:28:08.285Z,101397.59
2023-02-03T02:31:05.287Z,101235.53
2023-02-03T02:33:45.589Z,101420.81
2023-02-03T02:36:26.299Z,101386.44
2023-02-03T02:39:04.024Z,101421.25
2023-02-03T02:41:42.299Z,101380.75
2023-02-03T02:44:18.957Z,101419.03
2023-02-03T02:46:52.438Z,101431.34
2023-02-03T02:49:32.874Z,101421.06
2023-02-03T02:52:07.176Z,101428.13
2023-02-03T02:54:42.563Z,101333.31
2023-02-03T02:57:16.511Z,101414.59
2023-02-03T02:59:46.335Z,101379.88
2023-02-03T03:02:17.253Z,101394.25
2023-02-03T03:04:52.681Z,101396.88
2023-02-03T03:07:28.656Z,101376.63
2023-02-03T03:10:03.853Z,101415.00
2023-02-03T03:12:38.005Z,101404.66
2023-02-03T03:15:11.149Z,101383.09
2023-02-03T03:17:44.945Z,101378.75
2023-02-03T03:20:22.404Z,101377.91
2023-02-03T03:22:56.223Z,101376.63
2023-02-03T03:25:33.071Z,101366.97
2023-02-03T03:28:06.013Z,101388.16
2023-02-03T03:30:38.549Z,101385.28
2023-02-03T03:33:10.233Z,101364.06
2023-02-03T03:35:50.006Z,101368.19
2023-02-03T03:38:26.355Z,101312.09
2023-02-03T03:41:01.780Z,101216.28
2023-02-03T03:43:34.827Z,101291.03
2023-02-03T03:46:11.501Z,101378.25
2023-02-03T03:48:47.993Z,101276.91
2023-02-03T03:51:25.130Z,101371.31
2023-02-03T03:53:56.505Z,101361.78
2023-02-03T03:56:33.695Z,101367.28
2023-02-03T03:59:06.710Z,101361.63
2023-02-03T04:01:36.888Z,101318.16
2023-02-03T04:04:12.121Z,101312.59
2023-02-03T04:06:44.546Z,101304.47
2023-02-03T04:09:14.278Z,101303.84
2023-02-03T04:11:56.451Z,101319.22
2023-02-03T04:14:26.203Z,101367.09
2023-02-03T04:16:55.859Z,101340.91
2023-02-03T04:19:25.581Z,101353.06
2023-02-03T04:21:58.014Z,101303.47
2023-02-03T04:24:27.721Z,101368.16
2023-02-03T04:26:57.715Z,101351.94
2023-02-03T04:29:27.400Z,101347.47
2023-02-03T04:31:57.160Z,101331.28
2023-02-03T04:34:27.011Z,101344.19
2023-02-03T04:36:59.322Z,101334.84
2023-02-03T04:39:29.010Z,101358.28
2023-02-03T04:41:58.743Z,101344.47
2023-02-03T04:44:28.562Z,101342.06
2023-02-03T04:46:58.282Z,101271.84
2023-02-03T04:49:28.113Z,101265.72
2023-02-03T04:52:00.524Z,101311.75
2023-02-03T04:54:30.321Z,101301.44
2023-02-03T04:57:00.134Z,101303.09
2023-02-03T04:59:29.957Z,101253.88
2023-02-03T05:01:59.691Z,101304.94
2023-02-03T05:04:29.395Z,101226.03
2023-02-03T05:07:01.659Z,101307.25
2023-02-03T05:09:31.943Z,101307.06
2023-02-03T05:12:01.639Z,101294.94
2023-02-03T05:14:31.392Z,101288.16
2023-02-03T05:17:01.055Z,101287.53
2023-02-03T05:19:30.736Z,101306.63
2023-02-03T05:22:03.032Z,101282.53
2023-02-03T05:24:32.674Z,101316.38
2023-02-03T05:27:02.499Z,101299.06
2023-02-03T05:29:32.159Z,101291.28
2023-02-03T05:32:01.882Z,101312.34
2023-02-03T05:34:31.818Z,101169.13
2023-02-03T05:37:04.093Z,101288.81
2023-02-03T05:39:33.778Z,101301.16
2023-02-03T05:42:00.947Z,101320.63
2023-02-03T05:44:31.275Z,101303.69
2023-02-03T05:47:02.006Z,101307.88
2023-02-03T05:49:31.804Z,101332.06
2023-02-03T05:52:04.634Z,101300.03
2023-02-03T05:54:34.349Z,101314.00
2023-02-03T05:57:04.148Z,101288.91
2023-02-03T05:59:33.808Z,101263.13
2023-02-03T06:02:03.527Z,101304.56
2023-02-03T06:04:33.212Z,101286.03
2023-02-03T06:07:05.510Z,101300.28
2023-02-03T06:09:35.402Z,101166.50
2023-02-03T06:12:05.045Z,101318.97
2023-02-03T06:14:34.710Z,101277.81
2023-02-03T06:17:04.486Z,101264.00
2023-02-03T06:19:34.231Z,101306.25
2023-02-03T06:22:06.581Z,101309.38
2023-02-03T06:24:36.259Z,101284.50
2023-02-03T06:27:06.134Z,101172.25
2023-02-03T06:29:35.841Z,101310.66
2023-02-03T06:32:05.757Z,101297.47
2023-02-03T06:34:35.609Z,101285.31
2023-02-03T06:37:07.906Z,101269.25
2023-02-03T06:39:37.677Z,101305.16
2023-02-03T06:42:07.477Z,101274.81
2023-02-03T06:44:37.195Z,101243.72
2023-02-03T06:47:06.972Z,101241.72
2023-02-03T06:49:36.682Z,101299.78
2023-02-03T06:52:08.979Z,101290.81
2023-02-03T06:54:38.661Z,101252.38
2023-02-03T06:57:08.368Z,101296.81
2023-02-03T06:59:38.110Z,101297.38
2023-02-03T07:02:07.892Z,101285.94
2023-02-03T07:04:38.892Z,101299.91
2023-02-03T07:07:11.208Z,101243.31
2023-02-03T07:09:40.935Z,101260.94
2023-02-03T07:12:11.743Z,101283.94
2023-02-03T07:14:41.556Z,101243.50
2023-02-03T07:17:11.227Z,101238.78
2023-02-03T07:19:40.897Z,101281.16
2023-02-03T07:22:13.681Z,101299.25
2023-02-03T07:24:43.323Z,101281.09
2023-02-03T07:27:13.017Z,101283.19
2023-02-03T07:29:42.703Z,101271.31
2023-02-03T07:32:12.387Z,101264.53
2023-02-03T07:34:42.028Z,101260.25
2023-02-03T07:37:14.294Z,101257.72
2023-02-03T07:39:44.215Z,101267.97
2023-02-03T07:42:13.887Z,101272.78
2023-02-03T07:44:47.955Z,101244.50
2023-02-03T07:47:17.620Z,101233.75
2023-02-03T07:49:47.242Z,101228.84
2023-02-03T07:52:21.761Z,101242.75
2023-02-03T07:54:51.650Z,101198.97
2023-02-03T07:57:21.263Z,101193.56
2023-02-03T07:59:50.881Z,101236.19
2023-02-03T08:02:20.513Z,101251.06
2023-02-03T08:04:50.209Z,101248.25
2023-02-03T08:07:22.488Z,101237.59
2023-02-03T08:09:52.113Z,101258.81
2023-02-03T08:12:21.751Z,101252.09
2023-02-03T08:14:51.376Z,101252.41
2023-02-03T08:17:21.003Z,101220.31
2023-02-03T08:19:50.653Z,101221.50
2023-02-03T08:22:22.956Z,101238.03
2023-02-03T08:24:52.654Z,101236.53
2023-02-03T08:27:25.159Z,101250.91
2023-02-03T08:29:54.810Z,101247.94
2023-02-03T08:32:25.512Z,101238.56
2023-02-03T08:34:56.355Z,101249.63
2023-02-03T08:37:30.287Z,101238.59
2023-02-03T08:40:00.181Z,101238.78
2023-02-03T08:42:29.964Z,101238.34
2023-02-03T08:44:59.782Z,101267.66
2023-02-03T08:47:29.441Z,101236.91
2023-02-03T08:49:59.062Z,101248.34
2023-02-03T08:52:31.464Z,101256.28
2023-02-03T08:55:01.210Z,101122.97
2023-02-03T08:57:34.155Z,101247.63
2023-02-03T09:00:03.811Z,101246.34
2023-02-03T09:02:33.914Z,101239.56
2023-02-03T09:05:04.042Z,101229.91
2023-02-03T09:07:36.335Z,101241.44
2023-02-03T09:10:06.712Z,101246.72
2023-02-03T09:12:36.395Z,101185.34
2023-02-03T09:15:06.233Z,101187.91
2023-02-03T09:17:35.910Z,101199.84
2023-02-03T09:20:05.794Z,101195.16
2023-02-03T09:22:38.078Z,101262.88
2023-02-03T09:25:08.635Z,101279.09
2023-02-03T09:27:38.407Z,101230.53
2023-02-03T09:30:09.630Z,101288.56
2023-02-03T09:32:39.257Z,101302.97
2023-02-03T09:35:09.778Z,101305.50
2023-02-03T09:37:41.983Z,101273.59
2023-02-03T09:40:20.380Z,101311.53
2023-02-03T09:43:07.958Z,101313.84
2023-02-03T09:45:37.773Z,101314.41
2023-02-03T09:48:15.846Z,101305.75
2023-02-03T09:50:46.958Z,101289.44
2023-02-03T09:53:31.234Z,101298.84
2023-02-03T09:56:02.515Z,101285.44
2023-02-03T09:58:36.339Z,101286.09
2023-02-03T10:01:11.414Z,101302.44
2023-02-03T10:03:46.827Z,101320.38
2023-02-03T10:06:25.200Z,101297.78
2023-02-03T10:09:22.318Z,101309.38
2023-02-03T10:12:10.700Z,101285.69
2023-02-03T10:14:57.051Z,101319.59
2023-02-03T10:17:33.388Z,101309.19
2023-02-03T10:20:07.782Z,101327.31
2023-02-03T10:22:45.809Z,101303.69
2023-02-03T10:25:25.136Z,101331.84
2023-02-03T10:28:02.031Z,101316.88
2023-02-03T10:30:38.469Z,101313.31
2023-02-03T10:33:14.046Z,101314.28
2023-02-03T10:35:52.506Z,101333.13
2023-02-03T10:38:34.879Z,101325.72
2023-02-03T10:41:07.730Z,101331.75
2023-02-03T10:43:51.823Z,101327.06
2023-02-03T10:46:24.451Z,101330.47
2023-02-03T10:48:54.294Z,101340.97
2023-02-03T10:51:26.853Z,101250.47
2023-02-03T10:53:59.913Z,101363.03
2023-02-03T10:56:36.069Z,101340.75
2023-02-03T10:59:10.848Z,101343.50
2023-02-03T11:01:51.613Z,101290.88
2023-02-03T11:06:49.836Z,101075.34
2023-02-03T11:18:14.362Z,101054.81
2023-02-03T11:20:47.216Z,101291.91
2023-02-03T11:23:16.868Z,101328.47
2023-02-03T11:25:48.901Z,101310.97
2023-02-03T11:28:22.787Z,101292.78
2023-02-03T11:31:00.300Z,101291.59
2023-02-03T11:33:33.058Z,101295.25
2023-02-03T11:36:14.321Z,101394.38
2023-02-03T11:38:46.830Z,101323.00
2023-02-03T11:41:24.032Z,101308.91
2023-02-03T11:44:01.493Z,101305.88
2023-02-03T11:46:32.416Z,101377.09
2023-02-03T11:49:14.607Z,101386.50
2023-02-03T11:51:56.921Z,101348.28
2023-02-03T11:54:33.896Z,101285.84
2023-02-03T11:57:25.471Z,101325.84
2023-02-03T12:00:17.946Z,101296.59
2023-02-03T12:03:17.883Z,101373.13
2023-02-03T12:57:49.012Z,101340.16
2023-02-03T13:09:06.360Z,101362.81
2023-02-03T13:15:48.314Z,101443.66
2023-02-03T13:26:03.137Z,101212.28
2023-02-03T13:28:56.342Z,101213.47
2023-02-03T13:31:42.988Z,101284.41
2023-02-03T13:34:28.715Z,101381.78
2023-02-03T13:37:29.645Z,101431.88
2023-02-03T13:40:16.064Z,101404.94
2023-02-03T13:43:03.801Z,101357.34
2023-02-03T13:52:15.741Z,101122.06
2023-02-03T13:54:55.685Z,101364.09
2023-02-03T13:57:34.709Z,101416.41
2023-02-03T14:00:10.965Z,101443.78
2023-02-03T14:02:55.776Z,101366.72
2023-02-03T14:05:49.214Z,101401.25
2023-02-03T14:08:55.292Z,101427.41
2023-02-03T14:11:49.624Z,101444.44
2023-02-03T14:15:01.168Z,101139.81
2023-02-03T14:25:46.496Z,101173.75
2023-02-03T14:28:46.785Z,101362.47
2023-02-03T14:39:07.329Z,101193.53
2023-02-03T14:49:29.619Z,101241.78
2023-02-03T14:53:00.827Z,101522.16
2023-02-03T14:55:58.766Z,101388.19
2023-02-03T14:59:14.613Z,101565.88
2023-02-03T15:26:04.770Z,101507.09
2023-02-03T15:29:06.818Z,101419.81
2023-02-03T15:49:46.962Z,101626.84
2023-02-03T16:34:46.346Z,101501.13
2023-02-03T16:37:55.894Z,101506.53
2023-02-03T16:40:54.485Z,101527.44
2023-02-03T16:47:09.851Z,101701.78
2023-02-03T16:50:02.109Z,101519.72
2023-02-03T16:52:34.875Z,101529.91
2023-02-03T16:55:05.769Z,101614.63
2023-02-03T16:57:40.512Z,101632.81
2023-02-03T17:00:23.132Z,101368.50
2023-02-03T17:02:59.631Z,101607.75
2023-02-03T17:05:42.650Z,101639.34
2023-02-03T17:08:17.735Z,101595.56
2023-02-03T17:10:53.202Z,101575.31
2023-02-03T17:13:25.398Z,101642.34
2023-02-03T17:16:00.289Z,101519.22
2023-02-03T17:18:33.125Z,101540.66
2023-02-03T17:21:33.381Z,101369.00
2023-02-03T17:24:38.066Z,101546.06
2023-02-03T17:27:24.013Z,101743.47
2023-02-03T17:34:30.433Z,101362.19
2023-02-03T17:37:43.751Z,101606.38
2023-02-03T18:02:12.094Z,101781.97
2023-02-03T18:05:36.789Z,101434.28
2023-02-03T18:13:10.747Z,101781.66
2023-02-03T18:22:45.547Z,101790.41
2023-02-03T18:26:35.306Z,101809.66
2023-02-03T18:55:16.327Z,101825.38
2023-02-03T19:01:45.101Z,101851.41
2023-02-03T19:07:47.293Z,101881.94
2023-02-03T19:11:23.957Z,101864.59
2023-02-03T19:14:21.195Z,101701.81
2023-02-03T19:17:03.389Z,101705.22
2023-02-03T19:23:28.633Z,101865.50
2023-02-03T19:24:28.910Z,101528.09
2023-02-03T19:27:14.817Z,101613.66
2023-02-03T19:30:57.300Z,101532.31
2023-02-03T19:37:40.290Z,101909.84
2023-02-03T19:40:39.259Z,101802.66
2023-02-03T19:44:06.343Z,101873.97
2023-02-03T19:57:31.015Z,101787.53
